createdAt,value
2019-01-13T00:02:09.851Z,18.33
2019-01-13T00:04:36.178Z,18.80
2019-01-13T00:07:03.178Z,19.67
2019-01-13T00:09:32.262Z,19.97
2019-01-13T00:11:58.469Z,19.50
2019-01-13T00:14:24.694Z,19.47
2019-01-13T00:16:50.927Z,20.17
2019-01-13T00:19:17.230Z,18.33
2019-01-13T00:21:43.451Z,18.80
2019-01-13T00:24:09.898Z,19.17
2019-01-13T00:26:36.584Z,19.13
2019-01-13T00:29:03.285Z,18.50
2019-01-13T00:31:29.527Z,19.37
2019-01-13T00:33:55.758Z,19.53
2019-01-13T00:36:21.970Z,18.53
2019-01-13T00:38:48.233Z,18.27
2019-01-13T00:41:14.626Z,17.83
2019-01-13T00:43:40.839Z,17.97
2019-01-13T00:46:07.258Z,18.47
2019-01-13T00:48:33.470Z,18.43
2019-01-13T00:50:59.715Z,16.77
2019-01-13T00:53:26.033Z,16.37
2019-01-13T00:55:52.552Z,15.77
2019-01-13T00:58:18.767Z,15.10
2019-01-13T01:00:44.983Z,15.20
2019-01-13T01:03:11.418Z,14.63
2019-01-13T01:05:38.035Z,14.60
2019-01-13T01:08:04.766Z,15.60
2019-01-13T01:10:30.975Z,15.43
2019-01-13T01:12:57.195Z,15.30
2019-01-13T01:15:23.603Z,15.03
2019-01-13T01:17:49.824Z,15.53
2019-01-13T01:20:16.227Z,14.93
2019-01-13T01:22:43.983Z,15.47
2019-01-13T01:25:12.724Z,13.90
2019-01-13T01:27:39.146Z,13.83
2019-01-13T01:30:09.145Z,14.00
2019-01-13T01:32:35.359Z,14.17
2019-01-13T01:35:02.223Z,14.47
2019-01-13T01:37:34.370Z,14.77
2019-01-13T01:40:00.606Z,15.37
2019-01-13T01:42:26.902Z,14.23
2019-01-13T01:44:53.144Z,15.57
2019-01-13T01:47:19.342Z,14.27
2019-01-13T01:49:45.602Z,14.80
2019-01-13T01:52:11.810Z,15.33
2019-01-13T01:54:38.055Z,14.20
2019-01-13T01:57:04.358Z,13.67
2019-01-13T01:59:30.581Z,14.03
2019-01-13T02:02:05.015Z,13.97
2019-01-13T02:04:50.183Z,14.23
2019-01-13T02:07:16.399Z,14.60
2019-01-13T02:09:42.872Z,14.43
2019-01-13T02:12:09.070Z,13.37
2019-01-13T02:14:35.294Z,13.67
2019-01-13T02:17:01.514Z,14.87
2019-01-13T02:19:27.840Z,13.90
2019-01-13T02:21:54.043Z,14.60
2019-01-13T02:24:20.267Z,17.10
2019-01-13T02:26:46.470Z,16.23
2019-01-13T02:29:12.717Z,15.30
2019-01-13T02:31:38.914Z,16.60
2019-01-13T02:34:05.114Z,15.77
2019-01-13T02:36:31.464Z,15.77
2019-01-13T02:38:57.803Z,16.30
2019-01-13T02:41:24.457Z,16.00
2019-01-13T02:43:50.679Z,16.47
2019-01-13T02:46:16.992Z,16.90
2019-01-13T02:48:43.195Z,15.97
2019-01-13T02:51:09.406Z,15.17
2019-01-13T02:53:35.622Z,15.83
2019-01-13T02:56:01.847Z,15.10
2019-01-13T02:58:28.046Z,13.87
2019-01-13T03:00:57.184Z,14.73
2019-01-13T03:03:22.504Z,13.30
2019-01-13T03:05:48.812Z,12.57
2019-01-13T03:08:15.036Z,12.03
2019-01-13T03:10:41.351Z,10.67
2019-01-13T03:13:07.567Z,10.43
2019-01-13T03:15:33.882Z,9.87
2019-01-13T03:18:00.206Z,9.97
2019-01-13T03:20:26.523Z,10.37
2019-01-13T03:22:53.099Z,9.50
2019-01-13T03:25:20.506Z,9.77
2019-01-13T03:27:47.120Z,10.37
2019-01-13T03:30:21.419Z,9.70
2019-01-13T03:32:47.828Z,9.70
2019-01-13T03:35:14.556Z,8.53
2019-01-13T03:37:40.969Z,9.53
2019-01-13T03:40:18.575Z,8.60
2019-01-13T03:42:45.583Z,8.43
2019-01-13T03:45:12.202Z,8.20
2019-01-13T03:47:38.407Z,8.17
2019-01-13T03:50:08.453Z,7.87
2019-01-13T03:52:34.751Z,7.47
2019-01-13T03:55:01.117Z,6.90
2019-01-13T03:57:27.487Z,7.30
2019-01-13T03:59:53.694Z,7.30
2019-01-13T04:02:19.927Z,6.47
2019-01-13T04:04:46.161Z,6.77
2019-01-13T04:07:12.404Z,6.70
2019-01-13T04:09:38.656Z,6.87
2019-01-13T04:12:04.905Z,6.60
2019-01-13T04:14:31.115Z,7.17
2019-01-13T04:16:57.759Z,6.97
2019-01-13T04:19:23.970Z,6.80
2019-01-13T04:21:50.210Z,6.57
2019-01-13T04:24:16.541Z,6.57
2019-01-13T04:26:42.764Z,6.37
2019-01-13T04:29:08.999Z,6.53
2019-01-13T04:31:35.269Z,6.13
2019-01-13T04:34:01.478Z,6.00
2019-01-13T04:36:27.695Z,5.47
2019-01-13T04:38:53.922Z,5.50
2019-01-13T04:41:20.147Z,5.00
2019-01-13T04:43:46.409Z,5.57
2019-01-13T04:46:12.616Z,5.40
2019-01-13T04:48:38.835Z,5.13
2019-01-13T04:51:05.039Z,4.83
2019-01-13T04:53:31.287Z,5.87
2019-01-13T04:55:57.487Z,5.13
2019-01-13T04:58:23.690Z,5.83
2019-01-13T05:00:49.905Z,5.63
2019-01-13T05:03:16.107Z,5.90
2019-01-13T05:05:42.326Z,5.70
2019-01-13T05:08:08.569Z,5.90
2019-01-13T05:10:34.795Z,5.90
2019-01-13T05:13:01.275Z,5.63
2019-01-13T05:15:36.146Z,6.00
2019-01-13T05:18:02.451Z,6.80
2019-01-13T05:20:29.031Z,7.17
2019-01-13T05:22:56.702Z,7.07
2019-01-13T05:25:23.154Z,6.67
2019-01-13T05:27:49.363Z,7.37
2019-01-13T05:30:20.015Z,7.43
2019-01-13T05:32:46.618Z,7.90
2019-01-13T05:35:13.042Z,7.90
2019-01-13T05:37:39.238Z,7.97
2019-01-13T05:40:09.270Z,8.57
2019-01-13T05:42:35.466Z,8.20
2019-01-13T05:45:01.872Z,8.10
2019-01-13T05:47:28.090Z,7.50
2019-01-13T05:49:54.285Z,7.33
2019-01-13T05:52:20.511Z,7.90
2019-01-13T05:54:47.089Z,7.57
2019-01-13T05:57:13.467Z,8.43
2019-01-13T05:59:39.670Z,8.40
2019-01-13T06:02:05.871Z,8.87
2019-01-13T06:04:32.094Z,9.37
2019-01-13T06:06:58.623Z,9.43
2019-01-13T06:09:24.829Z,9.10
2019-01-13T06:11:51.143Z,9.43
2019-01-13T06:14:17.357Z,9.77
2019-01-13T06:16:43.583Z,9.23
2019-01-13T06:19:09.806Z,9.40
2019-01-13T06:21:36.119Z,8.90
2019-01-13T06:24:02.334Z,8.70
2019-01-13T06:26:28.562Z,8.00
2019-01-13T06:28:54.778Z,7.13
2019-01-13T06:31:20.982Z,6.80
2019-01-13T06:33:47.202Z,5.97
2019-01-13T06:36:13.406Z,6.20
2019-01-13T06:38:39.626Z,6.47
2019-01-13T06:41:05.931Z,7.33
2019-01-13T06:43:32.350Z,6.83
2019-01-13T06:45:58.570Z,7.17
2019-01-13T06:48:24.786Z,7.07
2019-01-13T06:50:50.991Z,6.00
2019-01-13T06:53:17.248Z,6.03
2019-01-13T06:55:43.441Z,5.87
2019-01-13T06:58:10.018Z,5.50
2019-01-13T07:00:36.332Z,5.30
2019-01-13T07:03:02.954Z,5.27
2019-01-13T07:05:29.158Z,5.63
2019-01-13T07:07:55.566Z,4.50
2019-01-13T07:10:21.944Z,4.80
2019-01-13T07:12:48.753Z,4.90
2019-01-13T07:15:16.892Z,4.83
2019-01-13T07:17:43.304Z,4.83
2019-01-13T07:20:12.235Z,5.33
2019-01-13T07:22:38.439Z,4.87
2019-01-13T07:25:05.698Z,4.97
2019-01-13T07:27:31.912Z,4.97
2019-01-13T07:29:58.140Z,4.83
2019-01-13T07:32:24.338Z,5.07
2019-01-13T07:34:50.561Z,6.60
2019-01-13T07:37:16.787Z,4.83
2019-01-13T07:39:42.986Z,4.33
2019-01-13T07:42:09.206Z,4.43
2019-01-13T07:44:35.434Z,4.30
2019-01-13T07:47:01.668Z,4.10
2019-01-13T07:49:27.920Z,4.07
2019-01-13T07:51:54.138Z,3.97
2019-01-13T07:54:20.373Z,4.00
2019-01-13T07:56:46.598Z,4.20
2019-01-13T07:59:12.942Z,3.80
2019-01-13T08:01:39.246Z,3.47
2019-01-13T08:04:05.448Z,4.27
2019-01-13T08:06:31.678Z,4.00
2019-01-13T08:08:57.900Z,3.70
2019-01-13T08:11:24.123Z,3.80
2019-01-13T08:13:50.571Z,3.67
2019-01-13T08:16:16.790Z,3.43
2019-01-13T08:18:42.999Z,3.30
2019-01-13T08:21:09.198Z,3.60
2019-01-13T08:23:35.482Z,4.00
2019-01-13T08:26:01.792Z,3.50
2019-01-13T08:28:28.006Z,3.80
2019-01-13T08:30:54.205Z,4.00
2019-01-13T08:33:20.434Z,4.10
2019-01-13T08:35:46.967Z,3.77
2019-01-13T08:38:13.186Z,4.40
2019-01-13T08:40:39.381Z,4.37
2019-01-13T08:43:05.590Z,4.30
2019-01-13T08:45:31.842Z,4.80
2019-01-13T08:47:58.042Z,4.70
2019-01-13T08:50:24.581Z,5.40
2019-01-13T08:52:51.382Z,5.43
2019-01-13T08:55:18.166Z,5.90
2019-01-13T08:57:44.881Z,5.93
2019-01-13T09:00:19.990Z,6.53
2019-01-13T09:02:46.320Z,6.63
2019-01-13T09:05:12.634Z,6.60
2019-01-13T09:07:38.860Z,6.30
2019-01-13T09:10:08.878Z,6.50
2019-01-13T09:12:35.105Z,7.20
2019-01-13T09:15:01.507Z,13.07
2019-01-13T09:17:27.722Z,7.63
2019-01-13T09:19:53.930Z,7.63
2019-01-13T09:22:20.158Z,7.13
2019-01-13T09:24:46.362Z,7.67
2019-01-13T09:27:12.590Z,7.50
2019-01-13T09:29:42.543Z,7.80
2019-01-13T09:32:07.098Z,8.27
2019-01-13T09:34:33.470Z,8.57
2019-01-13T09:37:00.014Z,9.27
2019-01-13T09:39:26.371Z,9.17
2019-01-13T09:41:52.586Z,9.57
2019-01-13T09:44:18.895Z,9.00
2019-01-13T09:46:45.355Z,10.27
2019-01-13T09:49:11.883Z,10.07
2019-01-13T09:51:38.154Z,10.23
2019-01-13T09:54:04.425Z,10.83
2019-01-13T09:56:30.651Z,12.10
2019-01-13T09:58:56.854Z,11.40
2019-01-13T10:01:23.176Z,10.97
2019-01-13T10:03:49.387Z,11.87
2019-01-13T10:06:17.046Z,12.80
2019-01-13T10:08:43.522Z,13.30
2019-01-13T10:11:09.902Z,14.23
2019-01-13T10:13:36.109Z,13.93
2019-01-13T10:16:02.889Z,14.73
2019-01-13T10:18:29.210Z,16.07
2019-01-13T10:20:56.187Z,16.07
2019-01-13T10:23:22.542Z,16.13
2019-01-13T10:25:48.738Z,16.90
2019-01-13T10:28:15.035Z,17.83
2019-01-13T10:30:41.258Z,18.13
2019-01-13T10:33:07.454Z,18.47
2019-01-13T10:35:33.773Z,17.47
2019-01-13T10:37:59.977Z,19.07
2019-01-13T10:40:27.303Z,18.80
2019-01-13T10:42:54.307Z,19.10
2019-01-13T10:45:20.762Z,17.97
2019-01-13T10:47:47.062Z,20.10
2019-01-13T10:50:19.582Z,18.23
2019-01-13T10:52:45.999Z,17.97
2019-01-13T10:55:13.510Z,17.60
2019-01-13T10:57:39.719Z,18.27
2019-01-13T11:00:10.054Z,17.67
2019-01-13T11:02:36.366Z,18.03
2019-01-13T11:05:04.462Z,17.33
2019-01-13T11:07:30.694Z,24.67
2019-01-13T11:09:57.362Z,17.63
2019-01-13T11:12:43.556Z,17.90
2019-01-13T11:15:12.683Z,19.57
2019-01-13T11:17:38.899Z,19.33
2019-01-13T11:20:11.578Z,19.27
2019-01-13T11:22:37.835Z,19.17
2019-01-13T11:25:05.146Z,20.30
2019-01-13T11:27:31.510Z,19.80
2019-01-13T11:29:57.717Z,22.02
2019-01-13T11:32:24.000Z,20.10
2019-01-13T11:34:50.458Z,19.47
2019-01-13T11:37:16.838Z,19.03
2019-01-13T11:39:43.192Z,18.10
2019-01-13T11:42:09.405Z,18.37
2019-01-13T11:44:35.646Z,18.57
2019-01-13T11:47:01.912Z,17.33
2019-01-13T11:49:28.125Z,17.87
2019-01-13T11:51:54.334Z,16.50
2019-01-13T11:54:20.558Z,16.03
2019-01-13T11:56:46.791Z,14.73
2019-01-13T11:59:13.071Z,14.80
2019-01-13T12:01:39.275Z,15.17
2019-01-13T12:04:23.843Z,14.80
2019-01-13T12:06:50.134Z,12.80
2019-01-13T12:09:16.337Z,12.00
2019-01-13T12:11:42.693Z,12.43
2019-01-13T12:14:09.011Z,12.27
2019-01-13T12:16:37.896Z,12.97
2019-01-13T12:19:04.318Z,11.00
2019-01-13T12:21:30.529Z,9.53
2019-01-13T12:23:56.738Z,9.67
2019-01-13T12:26:23.146Z,8.67
2019-01-13T12:28:49.371Z,7.60
2019-01-13T12:31:15.792Z,7.77
2019-01-13T12:33:42.098Z,7.00
2019-01-13T12:36:08.407Z,6.43
2019-01-13T12:38:34.633Z,6.20
2019-01-13T12:41:00.839Z,6.17
2019-01-13T12:43:27.067Z,5.00
2019-01-13T12:45:53.422Z,4.90
2019-01-13T12:48:19.753Z,4.47
2019-01-13T12:50:46.379Z,4.20
2019-01-13T12:53:13.014Z,3.70
2019-01-13T12:55:39.630Z,4.17
2019-01-13T12:58:06.265Z,3.67
2019-01-13T13:00:32.883Z,3.60
2019-01-13T13:02:59.643Z,3.40
2019-01-13T13:05:26.252Z,3.40
2019-01-13T13:07:52.903Z,3.40
2019-01-13T13:10:21.322Z,3.30
2019-01-13T13:12:47.938Z,3.40
2019-01-13T13:15:14.570Z,3.33
2019-01-13T13:17:41.387Z,3.47
2019-01-13T13:20:09.922Z,3.33
2019-01-13T13:22:36.530Z,3.40
2019-01-13T13:25:04.062Z,3.27
2019-01-13T13:27:30.774Z,3.13
2019-01-13T13:29:57.458Z,2.93
2019-01-13T13:32:24.167Z,3.30
2019-01-13T13:34:50.931Z,2.90
2019-01-13T13:37:17.646Z,5.90
2019-01-13T13:39:44.274Z,3.47
2019-01-13T13:42:11.150Z,3.30
2019-01-13T13:44:37.746Z,3.20
2019-01-13T13:47:04.384Z,3.47
2019-01-13T13:49:31.054Z,3.20
2019-01-13T13:51:57.685Z,3.27
2019-01-13T13:54:24.303Z,3.47
2019-01-13T13:56:50.928Z,4.30
2019-01-13T13:59:17.546Z,4.03
2019-01-13T14:01:44.283Z,3.97
2019-01-13T14:04:10.946Z,4.00
2019-01-13T14:06:37.590Z,4.27
2019-01-13T14:09:05.714Z,4.60
2019-01-13T14:11:32.334Z,5.10
2019-01-13T14:13:59.202Z,4.80
2019-01-13T14:16:25.826Z,4.73
2019-01-13T14:18:52.451Z,4.23
2019-01-13T14:21:19.087Z,4.90
2019-01-13T14:23:45.702Z,24.83
2019-01-13T14:26:12.626Z,4.10
2019-01-13T14:28:39.238Z,3.80
2019-01-13T14:31:06.094Z,3.97
2019-01-13T14:33:32.829Z,4.00
2019-01-13T14:35:59.489Z,4.00
2019-01-13T14:38:26.178Z,3.90
2019-01-13T14:40:52.811Z,4.00
2019-01-13T14:43:19.426Z,4.27
2019-01-13T14:45:46.046Z,4.37
2019-01-13T14:48:12.695Z,3.57
2019-01-13T14:50:39.808Z,3.33
2019-01-13T14:53:06.760Z,3.30
2019-01-13T14:55:33.574Z,3.20
2019-01-13T14:58:00.418Z,3.50
2019-01-13T15:00:29.418Z,3.57
2019-01-13T15:02:56.469Z,3.90
2019-01-13T15:05:23.222Z,4.10
2019-01-13T15:07:49.966Z,4.13
2019-01-13T15:10:17.574Z,4.40
2019-01-13T15:12:44.202Z,11.33
2019-01-13T15:15:12.230Z,4.23
2019-01-13T15:17:38.973Z,4.07
2019-01-13T15:20:07.574Z,4.20
2019-01-13T15:22:34.210Z,4.27
2019-01-13T15:25:00.830Z,4.13
2019-01-13T15:27:27.457Z,4.50
2019-01-13T15:29:54.333Z,4.63
2019-01-13T15:32:20.974Z,4.70
2019-01-13T15:34:47.592Z,4.70
2019-01-13T15:37:14.226Z,4.93
2019-01-13T15:39:40.843Z,5.00
2019-01-13T15:42:07.574Z,5.20
2019-01-13T15:44:34.186Z,5.27
2019-01-13T15:47:00.831Z,4.70
2019-01-13T15:49:27.463Z,5.20
2019-01-13T15:51:54.094Z,4.40
2019-01-13T15:54:20.730Z,4.80
2019-01-13T15:56:47.679Z,4.80
2019-01-13T15:59:14.314Z,4.70
2019-01-13T16:01:40.952Z,4.43
2019-01-13T16:04:14.313Z,4.63
2019-01-13T16:06:36.124Z,4.80
2019-01-13T16:09:06.555Z,4.67
2019-01-13T16:11:33.250Z,4.50
2019-01-13T16:13:59.882Z,4.90
2019-01-13T16:16:26.522Z,5.27
2019-01-13T16:18:53.138Z,5.63
2019-01-13T16:21:19.778Z,6.40
2019-01-13T16:23:46.630Z,5.93
2019-01-13T16:26:13.251Z,6.30
2019-01-13T16:28:39.884Z,6.60
2019-01-13T16:31:06.494Z,7.40
2019-01-13T16:33:33.132Z,7.80
2019-01-13T16:35:59.746Z,8.03
2019-01-13T16:38:26.542Z,51.63
2019-01-13T16:40:53.166Z,8.43
2019-01-13T16:43:19.790Z,8.40
2019-01-13T16:45:47.385Z,8.17
2019-01-13T16:48:14.019Z,8.37
2019-01-13T16:50:40.634Z,8.47
2019-01-13T16:53:07.319Z,8.43
2019-01-13T16:55:34.375Z,7.93
2019-01-13T16:58:00.986Z,8.17
2019-01-13T17:00:27.809Z,8.30
2019-01-13T17:02:54.435Z,8.13
2019-01-13T17:05:21.661Z,8.70
2019-01-13T17:07:48.482Z,7.73
2019-01-13T17:10:16.110Z,8.10
2019-01-13T17:12:43.522Z,7.50
2019-01-13T17:15:11.563Z,7.70
2019-01-13T17:17:38.239Z,8.10
2019-01-13T17:20:06.807Z,7.50
2019-01-13T17:22:33.417Z,8.00
2019-01-13T17:25:00.183Z,8.50
2019-01-13T17:27:26.870Z,8.00
2019-01-13T17:29:53.507Z,8.30
2019-01-13T17:32:20.117Z,7.73
2019-01-13T17:34:46.770Z,7.23
2019-01-13T17:37:13.446Z,7.60
2019-01-13T17:39:40.066Z,7.73
2019-01-13T17:42:06.709Z,7.47
2019-01-13T17:44:33.335Z,6.93
2019-01-13T17:47:00.004Z,8.40
2019-01-13T17:49:26.606Z,9.20
2019-01-13T17:51:53.243Z,8.17
2019-01-13T17:54:19.854Z,8.00
2019-01-13T17:56:46.558Z,8.20
2019-01-13T17:59:13.171Z,7.70
2019-01-13T18:01:39.817Z,8.00
2019-01-13T18:04:06.430Z,7.93
2019-01-13T18:06:33.082Z,8.43
2019-01-13T18:08:59.690Z,8.33
2019-01-13T18:11:26.322Z,8.70
2019-01-13T18:13:52.942Z,8.97
2019-01-13T18:16:19.574Z,9.13
2019-01-13T18:18:46.191Z,8.13
2019-01-13T18:21:12.815Z,7.17
2019-01-13T18:23:59.331Z,6.63
2019-01-13T18:26:26.055Z,5.37
2019-01-13T18:28:52.686Z,6.80
2019-01-13T18:31:19.303Z,9.73
2019-01-13T18:33:45.935Z,6.37
2019-01-13T18:36:12.542Z,4.67
2019-01-13T18:38:39.180Z,4.70
2019-01-13T18:41:05.806Z,4.53
2019-01-13T18:43:32.450Z,4.40
2019-01-13T18:45:59.166Z,4.87
2019-01-13T18:48:25.819Z,4.40
2019-01-13T18:50:52.436Z,4.40
2019-01-13T18:53:19.062Z,4.10
2019-01-13T18:55:45.679Z,2.60
2019-01-13T18:58:12.302Z,3.40
2019-01-13T19:00:38.516Z,5.20
2019-01-13T19:03:05.436Z,7.10
2019-01-13T19:05:32.045Z,7.73
2019-01-13T19:07:58.653Z,7.00
2019-01-13T19:10:34.257Z,7.37
2019-01-13T19:13:10.554Z,8.57
2019-01-13T19:15:36.779Z,8.23
2019-01-13T19:18:02.980Z,7.30
2019-01-13T19:20:30.193Z,7.80
2019-01-13T19:22:56.405Z,7.33
2019-01-13T19:25:24.726Z,7.33
2019-01-13T19:27:50.936Z,7.27
2019-01-13T19:30:17.364Z,5.93
2019-01-13T19:32:43.707Z,4.90
2019-01-13T19:35:12.815Z,4.37
2019-01-13T19:37:41.213Z,3.17
2019-01-13T19:40:09.666Z,2.77
2019-01-13T19:42:35.940Z,2.50
2019-01-13T19:45:04.454Z,2.10
2019-01-13T19:47:31.035Z,2.23
2019-01-13T19:49:57.239Z,2.00
2019-01-13T19:52:23.818Z,1.77
2019-01-13T19:54:50.014Z,1.57
2019-01-13T19:57:16.258Z,1.90
2019-01-13T19:59:42.457Z,1.90
2019-01-13T20:02:08.664Z,2.00
2019-01-13T20:04:35.086Z,1.90
2019-01-13T20:07:01.671Z,1.90
2019-01-13T20:09:28.059Z,1.77
2019-01-13T20:11:54.358Z,2.20
2019-01-13T20:14:20.586Z,1.90
2019-01-13T20:16:46.787Z,2.00
2019-01-13T20:19:13.011Z,2.80
2019-01-13T20:21:39.270Z,1.50
2019-01-13T20:24:05.482Z,1.40
2019-01-13T20:26:31.899Z,1.53
2019-01-13T20:28:58.123Z,1.30
2019-01-13T20:31:24.320Z,1.10
2019-01-13T20:33:50.763Z,1.50
2019-01-13T20:36:17.005Z,1.10
2019-01-13T20:38:43.213Z,1.30
2019-01-13T20:41:09.438Z,1.20
2019-01-13T20:43:35.652Z,1.33
2019-01-13T20:46:02.075Z,1.10
2019-01-13T20:48:28.278Z,1.37
2019-01-13T20:50:54.494Z,1.60
2019-01-13T20:53:21.014Z,1.83
2019-01-13T20:55:47.412Z,1.80
2019-01-13T20:58:13.680Z,1.93
2019-01-13T21:00:39.878Z,1.80
2019-01-13T21:03:06.095Z,2.27
2019-01-13T21:05:32.293Z,1.70
2019-01-13T21:07:58.522Z,1.60
2019-01-13T21:10:24.831Z,1.73
2019-01-13T21:12:51.146Z,1.90
2019-01-13T21:15:27.202Z,1.47
2019-01-13T21:17:57.407Z,1.67
2019-01-13T21:20:21.917Z,1.93
2019-01-13T21:22:48.756Z,2.00
2019-01-13T21:25:16.064Z,1.83
2019-01-13T21:27:42.694Z,2.23
2019-01-13T21:30:18.728Z,2.13
2019-01-13T21:32:44.938Z,2.00
2019-01-13T21:35:11.577Z,2.50
2019-01-13T21:37:37.805Z,2.20
2019-01-13T21:40:07.610Z,2.00
2019-01-13T21:42:33.829Z,2.20
2019-01-13T21:45:00.085Z,1.90
2019-01-13T21:47:26.461Z,2.20
2019-01-13T21:49:53.048Z,2.63
2019-01-13T21:52:19.243Z,2.37
2019-01-13T21:54:45.467Z,2.80
2019-01-13T21:57:11.670Z,2.90
2019-01-13T21:59:37.926Z,2.93
2019-01-13T22:02:04.225Z,2.33
2019-01-13T22:04:31.233Z,2.67
2019-01-13T22:06:57.635Z,2.70
2019-01-13T22:09:23.862Z,2.77
2019-01-13T22:11:50.058Z,2.50
2019-01-13T22:14:16.314Z,3.37
2019-01-13T22:16:42.619Z,2.40
2019-01-13T22:19:08.834Z,2.80
2019-01-13T22:21:35.039Z,2.70
2019-01-13T22:24:01.255Z,2.90
2019-01-13T22:26:27.460Z,2.93
2019-01-13T22:29:02.810Z,3.20
2019-01-13T22:31:29.003Z,3.00
2019-01-13T22:33:55.215Z,3.00
2019-01-13T22:36:21.574Z,2.70
2019-01-13T22:38:47.863Z,2.67
2019-01-13T22:41:14.290Z,2.27
2019-01-13T22:43:40.515Z,2.03
2019-01-13T22:46:06.735Z,2.00
2019-01-13T22:48:32.929Z,2.30
2019-01-13T22:50:59.147Z,2.47
2019-01-13T22:53:25.353Z,3.10
2019-01-13T22:55:51.571Z,4.13
2019-01-13T22:58:17.818Z,3.50
2019-01-13T23:00:58.727Z,3.60
2019-01-13T23:03:24.947Z,3.17
2019-01-13T23:05:57.298Z,3.17
2019-01-13T23:08:23.507Z,3.10
2019-01-13T23:10:49.730Z,3.17
2019-01-13T23:13:15.940Z,3.77
2019-01-13T23:15:42.318Z,3.33
2019-01-13T23:18:08.634Z,3.43
2019-01-13T23:20:35.124Z,3.00
2019-01-13T23:23:01.337Z,3.33
2019-01-13T23:25:27.542Z,3.37
2019-01-13T23:27:53.770Z,3.23
2019-01-13T23:30:19.971Z,3.00
2019-01-13T23:32:46.303Z,3.00
2019-01-13T23:35:12.617Z,3.00
2019-01-13T23:37:38.863Z,3.30
2019-01-13T23:40:06.037Z,3.27
2019-01-13T23:42:32.365Z,2.63
2019-01-13T23:44:58.654Z,3.17
2019-01-13T23:47:24.874Z,2.93
2019-01-13T23:49:51.382Z,2.60
2019-01-13T23:52:17.614Z,3.17
2019-01-13T23:54:43.825Z,2.80
2019-01-13T23:57:10.066Z,3.20
2019-01-13T23:59:36.295Z,3.00
